Time;durP1;ratioP1;P1;durP2;ratioP2;P2;SDS_P1;SDS_P2;PMS_P1;PMS_P2;Temp;Humidity;BMP_temperature;BMP_pressure;BME280_temperature;BME280_humidity;BME280_pressure;Samples;Min_cycle;Max_cycle;Signal;HPM_P1;HPM_P2
2023/10/06 00:03:05;;;;;;;64.65;36.10;;;;;;;23.80;nan;97983.25;4872060;29;20072;-66
2023/10/06 00:05:35;;;;;;;64.78;36.47;;;;;;;23.72;nan;97982.81;4870300;29;20048;-66
2023/10/06 00:08:31;;;;;;;60.95;37.42;;;;;;;23.58;nan;97989.28;4871544;29;20384;-66
2023/10/06 00:11:15;;;;;;;72.90;40.20;;;;;;;23.67;nan;97987.53;4871496;29;20052;-66
2023/10/06 00:14:00;;;;;;;63.15;38.30;;;;;;;23.72;nan;97980.09;4872343;29;20052;-66
2023/10/06 00:16:39;;;;;;;66.55;40.90;;;;;;;23.70;nan;97986.94;4871506;29;20053;-66
2023/10/06 00:19:27;;;;;;;69.32;42.20;;;;;;;23.66;nan;97996.72;4870131;29;20067;-67
2023/10/06 00:24:47;;;;;;;65.32;41.25;;;;;;;23.67;nan;98004.56;4871102;29;20045;-66
2023/10/06 00:27:29;;;;;;;75.53;43.95;;;;;;;23.53;nan;98010.97;4871195;29;20061;-66
2023/10/06 00:30:11;;;;;;;65.78;41.63;;;;;;;23.51;nan;98011.25;4870430;29;20793;-66
2023/10/06 00:32:42;;;;;;;67.82;40.47;;;;;;;23.46;nan;98015.94;4875527;29;20056;-66
2023/10/06 00:35:14;;;;;;;62.10;39.05;;;;;;;23.23;nan;98029.19;4869810;29;20148;-66
2023/10/06 00:37:44;;;;;;;71.68;41.45;;;;;;;23.13;nan;98034.75;4871457;29;20060;-66
2023/10/06 00:40:24;;;;;;;69.97;41.95;;;;;;;23.07;nan;98029.69;4883072;29;20049;-65
2023/10/06 00:42:59;;;;;;;73.70;43.40;;;;;;;23.24;nan;98046.22;4870152;29;20075;-65
2023/10/06 00:45:30;;;;;;;81.05;44.50;;;;;;;23.30;nan;98047.75;4874842;29;20053;-66
2023/10/06 00:47:59;;;;;;;78.78;43.67;;;;;;;23.15;nan;98043.34;4869762;29;20148;-66
2023/10/06 00:50:32;;;;;;;82.05;45.03;;;;;;;22.91;nan;98045.28;4869656;29;20056;-66
2023/10/06 00:53:04;;;;;;;87.03;46.15;;;;;;;22.85;nan;98046.41;4880738;29;20060;-66
2023/10/06 00:55:33;;;;;;;77.32;43.55;;;;;;;22.95;nan;98046.31;4870918;29;20610;-65
2023/10/06 00:58:09;;;;;;;75.07;44.20;;;;;;;23.29;nan;98055.06;4869776;29;20061;-66
2023/10/06 01:00:39;;;;;;;79.53;47.85;;;;;;;23.46;nan;98051.88;4869288;29;20888;-66
2023/10/06 01:03:10;;;;;;;76.55;45.95;;;;;;;23.48;nan;98057.00;4860553;29;20148;-66
2023/10/06 01:05:45;;;;;;;79.60;45.53;;;;;;;23.52;nan;98058.03;4869210;29;20045;-66
2023/10/06 01:08:15;;;;;;;72.50;45.65;;;;;;;23.54;nan;98061.25;4871331;29;20136;-65
2023/10/06 01:10:51;;;;;;;75.93;43.50;;;;;;;23.36;nan;98054.72;4871321;29;20737;-66
2023/10/06 01:13:22;;;;;;;68.45;44.10;;;;;;;23.52;nan;98055.31;4871224;29;20140;-65
2023/10/06 01:15:56;;;;;;;72.85;42.13;;;;;;;23.58;nan;98060.38;4870864;29;20116;-66
2023/10/06 01:18:31;;;;;;;72.72;43.22;;;;;;;23.63;nan;98057.59;4877128;29;20471;-66
2023/10/06 01:21:16;;;;;;;69.10;43.85;;;;;;;23.65;nan;98062.72;4881105;29;20120;-65
2023/10/06 01:23:49;;;;;;;62.97;42.22;;;;;;;23.69;nan;98063.72;4869973;29;20164;-66
2023/10/06 01:26:18;;;;;;;71.88;43.33;;;;;;;23.70;nan;98070.75;4872172;29;20114;-65
2023/10/06 01:28:47;;;;;;;69.25;42.95;;;;;;;23.72;nan;98074.75;4888033;29;20048;-66
2023/10/06 01:31:20;;;;;;;73.28;42.63;;;;;;;23.77;nan;98073.88;4872311;29;20120;-66
2023/10/06 01:33:49;;;;;;;69.63;42.53;;;;;;;23.81;nan;98068.72;4871711;29;20057;-66
2023/10/06 01:36:22;;;;;;;79.25;43.25;;;;;;;23.82;nan;98065.69;4872702;29;20090;-66
2023/10/06 01:38:52;;;;;;;;;;;;;;;23.94;nan;98068.75;4873482;29;20071;-66
2023/10/06 01:41:22;;;;;;;70.25;41.60;;;;;;;23.97;nan;98068.19;4871981;29;19955;-66
2023/10/06 01:43:52;;;;;;;70.65;43.25;;;;;;;24.11;nan;98082.56;4873613;29;20132;-66
2023/10/06 01:46:24;;;;;;;69.97;45.97;;;;;;;23.97;nan;98081.69;4872172;29;20730;-66
2023/10/06 01:48:53;;;;;;;72.25;43.45;;;;;;;24.06;nan;98082.66;4872186;29;20460;-65
2023/10/06 01:51:22;;;;;;;75.63;45.35;;;;;;;24.08;nan;98087.75;4875981;29;20049;-66
2023/10/06 01:53:52;;;;;;;76.32;44.05;;;;;;;24.10;nan;98090.97;4873367;29;20053;-66
2023/10/06 01:56:24;;;;;;;71.78;43.50;;;;;;;24.23;nan;98078.59;4871904;29;20758;-66
2023/10/06 01:58:53;;;;;;;70.55;45.47;;;;;;;24.24;nan;98086.44;4872264;29;20457;-66
2023/10/06 02:01:23;;;;;;;80.45;45.42;;;;;;;24.35;nan;98087.88;4877455;29;20060;-66
2023/10/06 02:03:52;;;;;;;81.93;46.70;;;;;;;24.36;nan;98092.19;4883559;29;20057;-66
2023/10/06 02:06:23;;;;;;;83.38;46.60;;;;;;;24.33;nan;98094.69;4871236;29;20046;-66
2023/10/06 02:08:55;;;;;;;77.88;45.55;;;;;;;24.38;nan;98098.13;4873202;29;20079;-66
2023/10/06 02:11:30;;;;;;;82.40;47.07;;;;;;;24.57;nan;98096.16;4872490;29;20072;-66
2023/10/06 02:14:00;;;;;;;87.82;49.40;;;;;;;24.73;nan;98099.41;4870919;29;20077;-67
2023/10/06 02:16:30;;;;;;;82.18;48.53;;;;;;;24.81;nan;98106.81;4871698;29;20059;-66
2023/10/06 02:19:01;;;;;;;80.68;51.28;;;;;;;24.89;nan;98111.59;4870801;29;20064;-67
2023/10/06 02:21:31;;;;;;;85.95;50.35;;;;;;;25.01;nan;98114.59;4875687;29;20059;-66
2023/10/06 02:24:03;;;;;;;87.00;52.55;;;;;;;25.04;nan;98119.44;4871732;29;20057;-66
2023/10/06 02:26:36;;;;;;;78.57;52.05;;;;;;;25.04;nan;98118.63;4872522;29;20142;-66
2023/10/06 02:29:21;;;;;;;84.88;54.13;;;;;;;25.04;nan;98122.16;4871225;29;20064;-66
2023/10/06 02:32:00;;;;;;;91.82;53.90;;;;;;;25.21;nan;98120.72;4871572;29;20073;-67
2023/10/06 02:34:35;;;;;;;92.10;54.92;;;;;;;25.18;nan;98130.25;4867932;29;20049;-66
2023/10/06 02:37:08;;;;;;;99.07;55.33;;;;;;;25.44;nan;98127.84;4862798;29;20726;-66
2023/10/06 02:39:41;;;;;;;87.65;54.53;;;;;;;25.53;nan;98131.47;4861691;29;20053;-66
2023/10/06 02:42:13;;;;;;;98.00;60.08;;;;;;;25.58;nan;98130.59;4867816;29;20049;-66
2023/10/06 02:44:46;;;;;;;99.13;61.35;;;;;;;25.64;nan;98142.91;4863466;29;20068;-66
2023/10/06 02:47:15;;;;;;;97.93;60.05;;;;;;;25.95;nan;98133.00;4863040;29;20053;-66
2023/10/06 02:49:48;;;;;;;97.13;61.67;;;;;;;25.98;nan;98137.81;4862322;29;20057;-66
2023/10/06 02:52:29;;;;;;;111.55;66.88;;;;;;;26.00;nan;98141.03;4869058;29;20055;-66
2023/10/06 02:55:09;;;;;;;110.93;65.68;;;;;;;25.93;nan;98146.09;4861814;29;20049;-66
2023/10/06 02:57:50;;;;;;;110.57;67.40;;;;;;;26.11;nan;98147.03;4864625;29;20117;-66
2023/10/06 03:02:56;;;;;;;109.90;68.20;;;;;;;26.27;nan;98146.41;4869319;29;20053;-66
2023/10/06 03:05:39;;;;;;;106.10;68.53;;;;;;;26.28;nan;98152.63;4866721;29;20781;-66
2023/10/06 03:08:08;;;;;;;115.72;71.07;;;;;;;26.53;nan;98143.88;4871301;29;20504;-66
2023/10/06 03:10:43;;;;;;;112.22;68.20;;;;;;;26.65;nan;98148.72;4870703;29;20068;-67
2023/10/06 03:13:16;;;;;;;113.68;68.93;;;;;;;26.86;nan;98154.47;4875192;29;20381;-66
2023/10/06 03:15:46;;;;;;;111.95;69.93;;;;;;;26.73;nan;98156.16;4871027;29;20489;-66
2023/10/06 03:18:18;;;;;;;109.60;69.22;;;;;;;26.94;nan;98159.16;4869692;29;20049;-66
2023/10/06 03:20:47;;;;;;;127.68;70.07;;;;;;;26.79;nan;98158.41;4871890;29;20509;-65
2023/10/06 03:23:32;;;;;;;130.18;70.68;;;;;;;26.94;nan;98165.41;4870040;29;20064;-65
2023/10/06 03:26:03;;;;;;;126.47;70.20;;;;;;;26.99;nan;98161.75;4870904;29;20136;-65
2023/10/06 03:28:36;;;;;;;118.95;66.00;;;;;;;27.10;nan;98168.50;4870871;29;20048;-66
2023/10/06 03:33:55;;;;;;;106.47;66.25;;;;;;;27.42;nan;98173.59;4870866;29;20064;-66
2023/10/06 03:36:47;;;;;;;121.95;68.10;;;;;;;27.50;nan;98183.75;4868652;29;20355;-66
2023/10/06 03:39:22;;;;;;;105.07;65.63;;;;;;;27.72;nan;98184.75;4871211;29;20076;-65
2023/10/06 03:41:55;;;;;;;109.80;64.60;;;;;;;27.90;nan;98183.66;4870607;29;20883;-65
2023/10/06 03:44:26;;;;;;;112.95;60.63;;;;;;;28.07;nan;98187.22;4870565;29;20542;-65
2023/10/06 03:47:00;;;;;;;105.30;61.35;;;;;;;28.25;nan;98188.06;4870490;29;20049;-66
2023/10/06 03:49:33;;;;;;;106.78;62.45;;;;;;;28.34;nan;98186.13;4871645;29;20040;-65
2023/10/06 03:52:09;;;;;;;106.00;65.78;;;;;;;28.55;nan;98192.53;4870146;29;20053;-65
2023/10/06 03:54:39;;;;;;;100.15;63.95;;;;;;;28.69;nan;98189.63;4870314;29;20052;-65
2023/10/06 03:57:11;;;;;;;98.45;62.67;;;;;;;28.83;nan;98192.22;4869658;29;20052;-65
2023/10/06 03:59:44;;;;;;;102.82;59.47;;;;;;;29.08;nan;98194.06;4871068;29;20505;-65
2023/10/06 04:02:15;;;;;;;110.15;56.30;;;;;;;29.30;nan;98196.59;4870647;29;20055;-65
2023/10/06 04:04:44;;;;;;;73.70;39.97;;;;;;;29.47;nan;98200.41;4871655;29;20117;-65
2023/10/06 04:07:13;;;;;;;63.05;38.35;;;;;;;29.82;nan;98207.28;4871017;29;20056;-65
2023/10/06 04:09:49;;;;;;;66.88;38.25;;;;;;;30.02;nan;98200.25;4889519;29;20056;-65
2023/10/06 04:12:18;;;;;;;71.32;42.08;;;;;;;30.01;nan;98210.38;4884415;29;20044;-65
2023/10/06 04:14:51;;;;;;;69.20;39.15;;;;;;;30.20;nan;98210.75;4870827;29;20409;-65
2023/10/06 04:17:23;;;;;;;71.75;42.67;;;;;;;30.32;nan;98207.28;4869881;29;20056;-65
2023/10/06 04:19:52;;;;;;;69.07;42.50;;;;;;;30.94;nan;98220.88;4860092;29;20053;-65
2023/10/06 04:22:21;;;;;;;67.93;40.50;;;;;;;31.44;nan;98219.88;4864317;29;20057;-66
2023/10/06 04:24:51;;;;;;;68.53;41.97;;;;;;;31.75;nan;98219.34;4870479;29;20159;-65
2023/10/06 04:27:21;;;;;;;70.30;44.08;;;;;;;31.79;nan;98215.59;4869966;29;20060;-65
2023/10/06 04:29:52;;;;;;;81.75;41.92;;;;;;;31.69;nan;98220.75;4871585;29;20076;-65
2023/10/06 04:32:22;;;;;;;59.05;38.88;;;;;;;32.30;nan;98216.00;4877176;29;20057;-65
2023/10/06 04:34:51;;;;;;;75.35;37.30;;;;;;;32.28;nan;98221.84;4866391;29;20748;-65
2023/10/06 04:37:20;;;;;;;77.00;41.92;;;;;;;32.43;nan;98223.88;4888882;29;20056;-65
2023/10/06 04:39:49;;;;;;;72.22;41.30;;;;;;;32.77;nan;98219.75;4889046;29;20064;-66
2023/10/06 04:42:19;;;;;;;66.68;41.00;;;;;;;32.98;nan;98216.78;4889546;29;20048;-65
2023/10/06 04:44:49;;;;;;;73.65;42.92;;;;;;;33.25;nan;98215.97;4876715;29;20581;-65
2023/10/06 04:47:19;;;;;;;72.32;42.30;;;;;;;32.94;nan;98230.41;4864756;29;20149;-67
2023/10/06 04:49:52;;;;;;;80.25;41.50;;;;;;;33.65;nan;98215.78;4874564;29;20064;-66
2023/10/06 04:52:22;;;;;;;74.32;43.35;;;;;;;33.03;nan;98221.22;4870177;29;20517;-66
2023/10/06 04:54:52;;;;;;;66.45;36.65;;;;;;;33.48;nan;98224.41;4869343;29;20063;-66
2023/10/06 04:57:21;;;;;;;63.90;34.33;;;;;;;33.83;nan;98222.53;4869837;29;20316;-66
2023/10/06 04:59:53;;;;;;;49.63;32.78;;;;;;;33.95;nan;98218.88;4868306;29;20053;-66
2023/10/06 05:02:24;;;;;;;57.03;30.23;;;;;;;33.88;nan;98228.91;4867537;29;20053;-66
2023/10/06 05:04:54;;;;;;;61.58;29.40;;;;;;;34.11;nan;98232.59;4868921;29;20594;-66
2023/10/06 05:07:24;;;;;;;47.38;28.20;;;;;;;34.32;nan;98232.28;4870289;29;20112;-66
2023/10/06 05:09:55;;;;;;;52.75;28.90;;;;;;;33.82;nan;98231.13;4872250;29;20100;-66
2023/10/06 05:12:25;;;;;;;42.30;26.25;;;;;;;33.47;nan;98222.81;4865663;29;20055;-66
2023/10/06 05:14:54;;;;;;;52.83;25.35;;;;;;;33.60;nan;98224.31;4865444;29;20485;-66
2023/10/06 05:17:23;;;;;;;58.28;27.38;;;;;;;34.40;nan;98223.03;4873058;29;20106;-66
2023/10/06 05:19:54;;;;;;;48.13;25.67;;;;;;;34.14;nan;98212.63;4872562;29;20057;-66
2023/10/06 05:22:24;;;;;;;53.10;27.55;;;;;;;33.44;nan;98220.78;4872496;29;20534;-66
2023/10/06 05:24:54;;;;;;;51.85;26.70;;;;;;;33.69;nan;98222.19;4866436;29;20059;-65
2023/10/06 05:27:23;;;;;;;48.15;28.23;;;;;;;34.35;nan;98209.56;4866973;29;20040;-65
2023/10/06 05:29:52;;;;;;;56.35;32.83;;;;;;;32.98;nan;98211.28;4869936;29;20060;-65
2023/10/06 05:32:22;;;;;;;53.03;29.83;;;;;;;34.18;nan;98213.53;4858945;29;20467;-65
2023/10/06 05:34:51;;;;;;;61.15;31.48;;;;;;;33.38;nan;98213.94;4872339;29;20053;-66
2023/10/06 05:37:21;;;;;;;55.85;30.90;;;;;;;33.89;nan;98211.28;4867244;29;20045;-67
2023/10/06 05:39:51;;;;;;;56.90;29.33;;;;;;;34.11;nan;98207.84;4862146;29;20755;-65
2023/10/06 05:42:21;;;;;;;53.25;27.33;;;;;;;34.19;nan;98207.69;4871258;29;20224;-65
2023/10/06 05:44:51;;;;;;;60.88;24.50;;;;;;;33.83;nan;98217.03;4866262;29;20128;-66
2023/10/06 05:47:21;;;;;;;37.40;20.17;;;;;;;34.57;nan;98212.41;4879439;29;20057;-65
2023/10/06 05:49:53;;;;;;;35.30;18.85;;;;;;;34.42;nan;98196.78;4882173;29;20049;-65
2023/10/06 05:52:23;;;;;;;31.08;16.02;;;;;;;34.51;nan;98207.56;4880616;29;20045;-65
2023/10/06 05:54:53;;;;;;;30.95;14.93;;;;;;;34.39;nan;98207.72;4878267;29;20053;-65
2023/10/06 05:57:22;;;;;;;30.85;15.68;;;;;;;34.05;nan;98206.53;4871752;29;20407;-65
2023/10/06 05:59:51;;;;;;;33.75;13.85;;;;;;;33.88;nan;98201.44;4873400;29;20060;-65
2023/10/06 06:02:24;;;;;;;34.85;15.75;;;;;;;34.28;nan;98201.97;4868000;29;20053;-65
2023/10/06 06:04:57;;;;;;;30.80;14.80;;;;;;;33.91;nan;98198.75;4872432;29;20075;-65
2023/10/06 06:07:27;;;;;;;25.92;12.48;;;;;;;34.10;nan;98198.81;4870288;29;20136;-65
2023/10/06 06:09:58;;;;;;;31.92;13.63;;;;;;;34.36;nan;98189.16;4872279;29;20057;-66
2023/10/06 06:12:27;;;;;;;27.27;13.98;;;;;;;34.28;nan;98183.53;4874522;29;20049;-63
2023/10/06 06:14:57;;;;;;;26.15;14.18;;;;;;;34.43;nan;98181.09;4871768;29;20055;-62
2023/10/06 06:17:26;;;;;;;26.13;12.90;;;;;;;33.93;nan;98176.44;4872465;29;20164;-63
2023/10/06 06:19:56;;;;;;;25.02;12.27;;;;;;;34.39;nan;98172.72;4869456;29;20417;-62
2023/10/06 06:22:40;;;;;;;26.75;9.75;;;;;;;34.33;nan;98168.69;4870563;29;20071;-62
2023/10/06 06:25:09;;;;;;;22.92;10.98;;;;;;;34.39;nan;98163.72;4876308;29;20048;-62
2023/10/06 06:27:39;;;;;;;20.92;10.52;;;;;;;34.24;nan;98157.13;4873642;29;20144;-63
2023/10/06 06:30:10;;;;;;;23.95;11.88;;;;;;;34.54;nan;98155.38;4872447;29;20052;-62
2023/10/06 06:32:40;;;;;;;26.75;11.85;;;;;;;34.21;nan;98155.09;4873473;29;20092;-63
2023/10/06 06:35:13;;;;;;;25.95;10.40;;;;;;;34.41;nan;98153.13;4880112;29;20108;-62
2023/10/06 06:37:43;;;;;;;25.92;9.98;;;;;;;34.38;nan;98145.63;4874220;29;20056;-63
2023/10/06 06:40:13;;;;;;;26.85;11.48;;;;;;;34.45;nan;98143.78;4872411;29;20155;-63
2023/10/06 06:42:42;;;;;;;24.65;13.23;;;;;;;34.50;nan;98142.69;4876208;29;20338;-63
2023/10/06 06:45:13;;;;;;;29.33;13.15;;;;;;;34.33;nan;98135.69;4875767;29;20057;-63
2023/10/06 06:47:43;;;;;;;22.70;12.80;;;;;;;34.43;nan;98137.88;4874391;29;20057;-62
2023/10/06 06:50:15;;;;;;;24.30;12.48;;;;;;;34.41;nan;98126.44;4875262;29;20048;-62
2023/10/06 06:52:46;;;;;;;24.85;12.88;;;;;;;34.31;nan;98121.50;4882618;29;20082;-63
2023/10/06 06:55:17;;;;;;;28.80;12.35;;;;;;;34.06;nan;98120.97;4878937;29;20128;-63
2023/10/06 06:57:50;;;;;;;28.70;13.25;;;;;;;34.17;nan;98118.47;4878194;29;20060;-63
2023/10/06 07:00:24;;;;;;;21.52;12.23;;;;;;;34.35;nan;98108.63;4869617;29;20059;-63
2023/10/06 07:02:54;;;;;;;23.25;13.07;;;;;;;34.25;nan;98111.97;4874074;29;20140;-62
2023/10/06 07:05:23;;;;;;;21.40;13.15;;;;;;;34.30;nan;98103.41;4874531;29;20151;-62
2023/10/06 07:07:53;;;;;;;25.05;13.70;;;;;;;34.20;nan;98102.06;4891191;29;20823;-62
2023/10/06 07:10:22;;;;;;;29.25;12.40;;;;;;;33.87;nan;98085.22;4868811;29;20542;-62
2023/10/06 07:12:52;;;;;;;26.88;12.45;;;;;;;33.85;nan;98084.81;4874042;29;20056;-62
2023/10/06 07:15:23;;;;;;;26.70;12.45;;;;;;;33.73;nan;98077.47;4871573;29;20063;-62
2023/10/06 07:17:55;;;;;;;21.95;12.50;;;;;;;33.61;nan;98083.06;4870000;29;20132;-62
2023/10/06 07:20:27;;;;;;;27.25;13.45;;;;;;;33.60;nan;98070.47;4881746;29;20063;-63
2023/10/06 07:23:00;;;;;;;21.30;12.60;;;;;;;33.99;nan;98063.09;4877541;29;20075;-62
2023/10/06 07:25:31;;;;;;;29.40;13.32;;;;;;;33.82;nan;98061.56;4879328;29;20048;-62
2023/10/06 07:28:00;;;;;;;26.70;13.05;;;;;;;33.88;nan;98059.34;4868134;29;20477;-62
2023/10/06 07:30:34;;;;;;;30.25;13.95;;;;;;;33.79;nan;98056.00;4868305;29;20048;-62
2023/10/06 07:33:05;;;;;;;23.95;13.55;;;;;;;33.68;nan;98053.03;4870869;29;20044;-63
2023/10/06 07:35:40;;;;;;;27.42;13.55;;;;;;;33.69;nan;98051.88;4867029;29;20060;-62
2023/10/06 07:38:13;;;;;;;27.10;12.25;;;;;;;33.65;nan;98037.25;4867192;29;20052;-62
2023/10/06 07:40:43;;;;;;;22.95;12.38;;;;;;;33.61;nan;98039.13;4865046;29;20698;-62
2023/10/06 07:43:15;;;;;;;23.50;12.15;;;;;;;33.66;nan;98032.56;4869733;29;20069;-63
2023/10/06 07:45:44;;;;;;;29.37;13.03;;;;;;;33.73;nan;98028.03;4868598;29;20049;-62
2023/10/06 07:48:14;;;;;;;21.42;12.10;;;;;;;33.60;nan;98029.28;4878322;29;20310;-63
2023/10/06 07:50:44;;;;;;;33.03;13.40;;;;;;;33.48;nan;98023.94;4878541;29;20659;-62
2023/10/06 07:53:13;;;;;;;26.80;13.20;;;;;;;33.17;nan;98013.03;4873611;29;20568;-62
2023/10/06 07:55:43;;;;;;;18.63;12.30;;;;;;;33.40;nan;98012.00;4873857;29;20053;-63
2023/10/06 07:58:13;;;;;;;32.00;13.90;;;;;;;33.31;nan;98003.16;4868601;29;20180;-63
2023/10/06 08:00:42;;;;;;;28.10;13.23;;;;;;;33.24;nan;98007.69;4851103;29;20050;-62
2023/10/06 08:03:12;;;;;;;30.58;13.98;;;;;;;33.07;nan;97997.06;4862776;29;20146;-62
2023/10/06 08:05:42;;;;;;;30.17;13.32;;;;;;;33.23;nan;97990.44;4866012;29;20200;-64
2023/10/06 08:08:12;;;;;;;26.98;12.80;;;;;;;33.33;nan;97989.84;4871627;29;20139;-62
2023/10/06 08:10:41;;;;;;;27.83;12.50;;;;;;;33.43;nan;97985.75;4876702;29;20061;-62
2023/10/06 08:13:11;;;;;;;28.40;12.65;;;;;;;33.39;nan;97976.66;4877975;29;20099;-63
2023/10/06 08:15:44;;;;;;;28.45;11.73;;;;;;;33.25;nan;97981.81;4875505;29;20053;-63
2023/10/06 08:18:15;;;;;;;23.65;11.43;;;;;;;33.33;nan;97984.38;4880037;29;20418;-62
2023/10/06 08:20:46;;;;;;;20.77;11.20;;;;;;;33.32;nan;97976.50;4877912;29;20063;-62
2023/10/06 08:23:15;;;;;;;16.52;11.95;;;;;;;33.47;nan;97978.38;4874817;29;20152;-62
2023/10/06 08:25:46;;;;;;;23.77;12.10;;;;;;;33.48;nan;97969.00;4874902;29;20442;-62
2023/10/06 08:28:31;;;;;;;32.38;12.57;;;;;;;33.25;nan;97977.13;4876916;29;20041;-62
2023/10/06 08:31:02;;;;;;;23.67;11.82;;;;;;;33.37;nan;97968.00;4874268;29;20347;-62
2023/10/06 08:33:32;;;;;;;26.17;12.43;;;;;;;33.39;nan;97966.47;4870683;29;20124;-62
2023/10/06 08:36:02;;;;;;;22.08;11.45;;;;;;;33.24;nan;97966.50;4889335;29;20108;-62
2023/10/06 08:38:32;;;;;;;21.85;11.43;;;;;;;33.26;nan;97962.25;4882012;29;20067;-62
2023/10/06 08:41:08;;;;;;;27.98;11.48;;;;;;;33.27;nan;97955.63;4879060;29;20065;-62
2023/10/06 08:43:40;;;;;;;18.48;11.30;;;;;;;33.27;nan;97958.38;4875455;29;20734;-62
2023/10/06 08:46:15;;;;;;;22.23;11.93;;;;;;;33.32;nan;97957.28;4867362;29;20140;-62
2023/10/06 08:48:45;;;;;;;23.70;11.18;;;;;;;33.38;nan;97950.34;4855622;29;20665;-62
2023/10/06 08:51:19;;;;;;;20.75;11.30;;;;;;;33.40;nan;97943.34;4870324;29;20065;-62
2023/10/06 08:53:51;;;;;;;29.98;11.90;;;;;;;33.35;nan;97949.13;4870085;29;20438;-62
2023/10/06 08:56:20;;;;;;;26.05;11.18;;;;;;;33.27;nan;97947.38;4877171;29;20063;-62
2023/10/06 08:58:53;;;;;;;26.95;11.85;;;;;;;33.28;nan;97942.69;4883628;29;20056;-63
2023/10/06 09:01:24;;;;;;;23.25;10.20;;;;;;;33.24;nan;97942.59;4876487;29;20071;-62
2023/10/06 09:04:01;;;;;;;23.88;9.68;;;;;;;33.25;nan;97940.66;4874744;29;20144;-63
2023/10/06 09:06:31;;;;;;;21.40;10.70;;;;;;;33.20;nan;97940.94;4878186;29;20501;-62
2023/10/06 09:09:02;;;;;;;24.05;10.75;;;;;;;33.16;nan;97937.31;4871946;29;20061;-62
2023/10/06 09:11:41;;;;;;;18.55;9.70;;;;;;;33.26;nan;97937.56;4869689;29;20045;-62
2023/10/06 09:14:11;;;;;;;23.33;9.98;;;;;;;33.17;nan;97936.16;4872648;29;20060;-63
2023/10/06 09:17:04;;;;;;;24.15;10.88;;;;;;;33.27;nan;97938.34;4878423;29;20392;-62
2023/10/06 09:19:47;;;;;;;23.30;10.07;;;;;;;33.24;nan;97937.09;4874132;29;20052;-62
2023/10/06 09:22:17;;;;;;;22.27;10.35;;;;;;;33.27;nan;97930.13;4878852;29;20068;-62
2023/10/06 09:25:02;;;;;;;17.63;10.27;;;;;;;33.29;nan;97936.03;4871437;29;20052;-63
2023/10/06 09:27:38;;;;;;;25.30;10.07;;;;;;;33.30;nan;97924.69;4870900;29;20068;-62
2023/10/06 09:30:11;;;;;;;26.77;11.40;;;;;;;33.27;nan;97919.13;4868338;29;20063;-62
2023/10/06 09:32:40;;;;;;;27.95;10.30;;;;;;;33.29;nan;97922.31;4874852;29;20049;-63
2023/10/06 09:35:20;;;;;;;18.20;9.98;;;;;;;33.21;nan;97917.81;4871540;29;20080;-64
2023/10/06 09:37:54;;;;;;;19.13;10.88;;;;;;;33.11;nan;97916.41;4863484;29;20160;-63
2023/10/06 09:40:24;;;;;;;21.33;10.73;;;;;;;33.10;nan;97906.59;4876681;29;20052;-63
2023/10/06 09:42:54;;;;;;;19.40;9.38;;;;;;;33.14;nan;97907.50;4878654;29;20056;-62
2023/10/06 09:45:24;;;;;;;25.05;9.77;;;;;;;33.07;nan;97903.75;4877543;29;20058;-63
2023/10/06 09:47:56;;;;;;;18.65;9.73;;;;;;;33.08;nan;97908.09;4871965;29;20049;-62
2023/10/06 09:50:27;;;;;;;22.58;10.63;;;;;;;33.07;nan;97903.75;4873953;29;20076;-62
2023/10/06 09:53:05;;;;;;;19.98;10.05;;;;;;;33.00;nan;97901.66;4878214;29;20184;-63
2023/10/06 09:55:35;;;;;;;29.42;12.02;;;;;;;32.98;nan;97896.53;4866348;29;20105;-62
2023/10/06 09:58:05;;;;;;;23.65;9.85;;;;;;;32.92;nan;97894.44;4873726;29;20406;-63
2023/10/06 10:00:39;;;;;;;21.10;9.23;;;;;;;32.85;nan;97884.09;4872270;29;20524;-62
2023/10/06 10:03:12;;;;;;;24.35;10.90;;;;;;;32.84;nan;97892.69;4866648;29;20448;-62
2023/10/06 10:05:44;;;;;;;17.38;9.88;;;;;;;32.83;nan;97889.16;4871958;29;20049;-63
2023/10/06 10:08:13;;;;;;;20.70;10.05;;;;;;;32.77;nan;97878.81;4873341;29;20051;-62
2023/10/06 10:10:47;;;;;;;21.15;11.38;;;;;;;32.78;nan;97881.19;4886011;29;20048;-62
2023/10/06 10:13:31;;;;;;;17.95;10.43;;;;;;;32.77;nan;97887.03;4878390;29;20059;-63
2023/10/06 10:16:42;;;;;;;13.48;9.20;;;;;;;32.74;nan;97891.31;4878752;29;20045;-62
2023/10/06 10:19:18;;;;;;;18.38;9.68;;;;;;;32.67;nan;97891.13;4878570;29;20052;-63
2023/10/06 10:21:48;;;;;;;17.48;9.95;;;;;;;32.64;nan;97889.09;4881242;29;20053;-63
2023/10/06 10:24:23;;;;;;;23.42;9.70;;;;;;;32.58;nan;97882.25;4871477;29;20056;-62
2023/10/06 10:26:56;;;;;;;22.20;9.65;;;;;;;32.53;nan;97882.53;4868764;29;20053;-63
2023/10/06 10:29:25;;;;;;;15.25;9.10;;;;;;;32.53;nan;97886.06;4870304;29;20049;-63
2023/10/06 10:32:16;;;;;;;25.63;10.20;;;;;;;32.41;nan;97888.13;4871700;29;20053;-63
2023/10/06 10:35:12;;;;;;;17.98;9.68;;;;;;;32.45;nan;97883.53;4867655;29;20169;-63
2023/10/06 10:38:06;;;;;;;19.75;9.60;;;;;;;32.39;nan;97884.97;4871338;29;20059;-63
2023/10/06 10:40:47;;;;;;;16.85;9.98;;;;;;;32.31;nan;97894.16;4868230;29;20164;-63
2023/10/06 10:43:17;;;;;;;26.55;10.75;;;;;;;32.30;nan;97879.66;4849239;29;20060;-63
2023/10/06 10:45:48;;;;;;;20.85;9.60;;;;;;;32.25;nan;97887.34;4861300;29;20148;-62
2023/10/06 10:48:18;;;;;;;18.02;9.68;;;;;;;32.20;nan;97882.13;4865757;29;20076;-63
2023/10/06 10:51:07;;;;;;;23.83;10.60;;;;;;;32.15;nan;97890.63;4867660;29;20053;-63
2023/10/06 10:53:43;;;;;;;19.10;10.20;;;;;;;32.14;nan;97883.53;4864125;29;20049;-63
2023/10/06 10:56:34;;;;;;;15.88;9.38;;;;;;;32.02;nan;97876.97;4863890;29;20052;-63
2023/10/06 10:59:05;;;;;;;18.85;10.00;;;;;;;32.05;nan;97880.94;4864779;29;20045;-63
2023/10/06 11:01:38;;;;;;;23.30;10.70;;;;;;;31.94;nan;97877.94;4864780;29;20060;-63
2023/10/06 11:07:09;;;;;;;25.40;11.77;;;;;;;31.83;nan;97876.84;4867839;29;20049;-62
2023/10/06 11:09:40;;;;;;;24.15;11.10;;;;;;;31.78;nan;97885.31;4866556;29;20053;-63
2023/10/06 11:12:22;;;;;;;26.88;10.82;;;;;;;31.70;nan;97880.00;4862404;29;20053;-64
2023/10/06 11:14:55;;;;;;;28.13;12.77;;;;;;;31.60;nan;97881.34;4529797;29;9999993;-63
2023/10/06 11:17:31;;;;;;;24.63;11.50;;;;;;;31.54;nan;97877.22;4863837;29;20053;-63
2023/10/06 11:20:13;;;;;;;26.70;11.00;;;;;;;31.48;nan;97881.34;4864443;29;20790;-63
2023/10/06 11:23:01;;;;;;;16.67;11.48;;;;;;;31.44;nan;97881.25;4860336;29;20059;-63
2023/10/06 11:25:33;;;;;;;21.98;11.73;;;;;;;31.31;nan;97879.72;4861782;29;20084;-63
2023/10/06 11:28:04;;;;;;;22.17;11.23;;;;;;;31.30;nan;97883.59;4862053;29;20060;-63
2023/10/06 11:30:40;;;;;;;33.42;11.93;;;;;;;31.30;nan;97882.78;4864284;29;20053;-62
2023/10/06 11:33:11;;;;;;;25.52;10.95;;;;;;;31.21;nan;97886.47;4852170;29;20063;-63
2023/10/06 11:35:41;;;;;;;22.08;11.43;;;;;;;31.19;nan;97883.31;4864247;29;20255;-62
2023/10/06 11:38:15;;;;;;;20.40;11.60;;;;;;;31.14;nan;97880.00;4859996;29;20068;-63
2023/10/06 11:40:45;;;;;;;31.60;12.27;;;;;;;31.08;nan;97879.44;4858654;29;20101;-63
2023/10/06 11:43:21;;;;;;;26.90;11.45;;;;;;;31.04;nan;97880.47;4863637;29;20378;-63
2023/10/06 11:46:02;;;;;;;27.77;12.35;;;;;;;30.96;nan;97884.13;4865166;29;20132;-62
2023/10/06 11:48:35;;;;;;;24.58;11.48;;;;;;;30.87;nan;97876.06;4862794;29;20047;-62
2023/10/06 11:51:06;;;;;;;19.10;10.82;;;;;;;30.76;nan;97874.91;4861468;29;20071;-63
2023/10/06 11:53:39;;;;;;;22.55;11.70;;;;;;;30.77;nan;97871.06;4865469;29;20081;-62
2023/10/06 11:56:12;;;;;;;27.80;12.18;;;;;;;30.64;nan;97874.94;4529918;29;9999781;-63
2023/10/06 11:58:44;;;;;;;31.85;12.20;;;;;;;30.57;nan;97872.81;4859467;29;20056;-62
2023/10/06 12:01:32;;;;;;;28.85;13.40;;;;;;;30.49;nan;97876.47;4527628;29;9999638;-63
2023/10/06 12:04:06;;;;;;;27.42;13.60;;;;;;;30.47;nan;97877.91;4866298;29;20045;-64
2023/10/06 12:06:40;;;;;;;33.72;14.88;;;;;;;30.36;nan;97880.28;4867122;29;20048;-64
2023/10/06 12:09:22;;;;;;;28.60;15.50;;;;;;;30.36;nan;97883.00;4867024;29;20136;-63
2023/10/06 12:11:55;;;;;;;25.67;15.18;;;;;;;30.26;nan;97886.22;4863791;29;20733;-63
2023/10/06 12:14:25;;;;;;;25.15;15.15;;;;;;;30.22;nan;97888.03;4865844;29;20060;-63